createdAt,value
2023-06-15T00:01:06.128Z,94.05
2023-06-15T00:03:33.938Z,93.60
2023-06-15T00:06:01.201Z,94.93
2023-06-15T00:08:28.100Z,92.67
2023-06-15T00:10:55.047Z,91.85
2023-06-15T00:13:22.024Z,91.98
2023-06-15T00:15:48.958Z,91.95
2023-06-15T00:18:15.898Z,90.57
2023-06-15T00:20:42.946Z,89.85
2023-06-15T00:23:10.189Z,91.61
2023-06-15T00:25:38.107Z,88.57
2023-06-15T00:28:05.360Z,85.55
2023-06-15T00:30:32.319Z,86.16
2023-06-15T00:32:59.376Z,87.59
2023-06-15T00:35:26.487Z,87.00
2023-06-15T00:37:53.592Z,87.06
2023-06-15T00:40:20.638Z,86.39
2023-06-15T00:42:47.660Z,81.64
2023-06-15T00:45:14.708Z,84.07
2023-06-15T00:47:45.172Z,81.61
2023-06-15T00:50:16.047Z,80.53
2023-06-15T00:52:44.055Z,81.91
2023-06-15T00:55:13.903Z,82.92
2023-06-15T00:57:50.984Z,85.00
2023-06-15T01:00:19.565Z,85.77
2023-06-15T01:02:52.282Z,96.96
2023-06-15T01:05:20.573Z,99.27
2023-06-15T01:07:50.045Z,99.58
2023-06-15T01:10:19.072Z,97.28
2023-06-15T01:12:52.290Z,95.48
2023-06-15T01:15:20.229Z,95.46
2023-06-15T01:17:47.778Z,96.31
2023-06-15T01:20:23.039Z,95.21
2023-06-15T01:23:06.515Z,93.86
2023-06-15T01:25:36.291Z,93.81
2023-06-15T01:28:04.899Z,92.64
2023-06-15T01:30:43.829Z,91.19
2023-06-15T01:33:12.683Z,88.97
2023-06-15T01:35:40.890Z,88.33
2023-06-15T01:38:08.131Z,87.41
2023-06-15T01:40:39.711Z,86.63
2023-06-15T01:43:11.263Z,86.40
2023-06-15T01:45:40.292Z,85.90
2023-06-15T01:48:08.650Z,88.87
2023-06-15T01:50:37.239Z,91.08
2023-06-15T01:53:04.713Z,92.31
2023-06-15T01:55:31.721Z,97.59
2023-06-15T01:57:58.732Z,93.62
2023-06-15T02:00:26.517Z,95.36
2023-06-15T02:02:53.714Z,95.38
2023-06-15T02:05:21.017Z,95.10
2023-06-15T02:07:48.059Z,94.84
2023-06-15T02:10:15.092Z,95.53
2023-06-15T02:12:41.968Z,94.84
2023-06-15T02:15:09.589Z,91.86
2023-06-15T02:17:42.761Z,91.16
2023-06-15T02:20:11.423Z,90.56
2023-06-15T02:22:38.819Z,89.67
2023-06-15T02:25:06.626Z,89.38
2023-06-15T02:27:33.576Z,88.42
2023-06-15T02:30:00.557Z,87.10
2023-06-15T02:32:36.288Z,87.74
2023-06-15T02:35:06.343Z,87.80
2023-06-15T02:37:33.409Z,89.12
2023-06-15T02:40:00.420Z,89.57
2023-06-15T02:42:27.365Z,88.91
2023-06-15T02:44:54.305Z,88.95
2023-06-15T02:47:21.311Z,88.28
2023-06-15T02:49:48.445Z,88.79
2023-06-15T02:52:15.408Z,88.05
2023-06-15T02:54:42.303Z,88.64
2023-06-15T02:57:10.310Z,88.59
2023-06-15T02:59:38.910Z,88.66
2023-06-15T03:02:06.218Z,88.57
2023-06-15T03:04:34.395Z,88.85
2023-06-15T03:07:01.456Z,88.95
2023-06-15T03:09:28.455Z,87.51
2023-06-15T03:11:55.380Z,87.81
2023-06-15T03:14:22.311Z,89.18
2023-06-15T03:16:49.436Z,91.76
2023-06-15T03:19:17.840Z,91.15
2023-06-15T03:21:48.541Z,91.31
2023-06-15T03:24:17.734Z,93.95
2023-06-15T03:26:44.842Z,94.32
2023-06-15T03:29:12.288Z,91.00
2023-06-15T03:31:42.435Z,90.48
2023-06-15T03:34:10.643Z,94.81
2023-06-15T03:36:37.811Z,95.90
2023-06-15T03:39:04.929Z,94.39
2023-06-15T03:41:31.865Z,91.25
2023-06-15T03:43:59.587Z,87.41
2023-06-15T03:46:26.577Z,82.78
2023-06-15T03:48:53.519Z,80.76
2023-06-15T03:51:20.604Z,79.07
2023-06-15T03:53:47.570Z,77.53
2023-06-15T03:56:14.572Z,73.51
2023-06-15T03:58:41.612Z,70.15
2023-06-15T04:01:08.733Z,66.86
2023-06-15T04:03:35.968Z,65.44
2023-06-15T04:06:06.535Z,63.18
2023-06-15T04:08:33.950Z,63.90
2023-06-15T04:11:01.650Z,62.52
2023-06-15T04:13:28.602Z,62.81
2023-06-15T04:15:55.668Z,64.20
2023-06-15T04:18:23.989Z,64.08
2023-06-15T04:20:51.397Z,63.73
2023-06-15T04:23:19.253Z,63.15
2023-06-15T04:25:46.516Z,64.16
2023-06-15T04:28:13.627Z,63.23
2023-06-15T04:30:41.933Z,63.67
2023-06-15T04:33:16.185Z,64.56
2023-06-15T04:35:48.622Z,67.20
2023-06-15T04:38:17.748Z,67.34
2023-06-15T04:40:47.507Z,67.70
2023-06-15T04:43:14.747Z,67.74
2023-06-15T04:45:41.661Z,68.52
2023-06-15T04:48:08.670Z,68.74
2023-06-15T04:50:36.705Z,68.99
2023-06-15T04:53:04.089Z,70.58
2023-06-15T04:55:31.573Z,71.73
2023-06-15T04:57:58.486Z,71.23
2023-06-15T05:00:27.527Z,70.28
2023-06-15T05:02:54.549Z,73.46
2023-06-15T05:05:22.124Z,72.23
2023-06-15T05:07:50.256Z,70.65
2023-06-15T05:10:17.319Z,68.41
2023-06-15T05:12:44.415Z,70.96
2023-06-15T05:15:11.527Z,66.33
2023-06-15T05:17:38.614Z,67.72
2023-06-15T05:20:07.213Z,67.45
2023-06-15T05:22:34.191Z,63.73
2023-06-15T05:25:01.119Z,64.91
2023-06-15T05:27:29.245Z,64.06
2023-06-15T05:29:56.334Z,62.23
2023-06-15T05:32:23.453Z,60.17
2023-06-15T05:34:50.351Z,57.50
2023-06-15T05:37:19.317Z,56.47
2023-06-15T05:39:47.462Z,58.04
2023-06-15T05:42:14.893Z,55.00
2023-06-15T05:44:42.557Z,54.52
2023-06-15T05:47:10.806Z,57.42
2023-06-15T05:49:39.044Z,59.21
2023-06-15T05:52:06.377Z,58.79
2023-06-15T05:54:33.978Z,59.44
2023-06-15T05:57:01.616Z,59.58
2023-06-15T05:59:33.873Z,56.55
2023-06-15T06:02:02.712Z,58.15
2023-06-15T06:04:30.487Z,59.07
2023-06-15T06:06:57.809Z,57.42
2023-06-15T06:09:25.962Z,56.37
2023-06-15T06:11:52.995Z,55.95
2023-06-15T06:14:20.007Z,58.25
2023-06-15T06:16:46.976Z,56.04
2023-06-15T06:19:13.981Z,54.11
2023-06-15T06:21:41.678Z,52.95
2023-06-15T06:24:09.389Z,53.60
2023-06-15T06:26:37.564Z,51.41
2023-06-15T06:29:05.013Z,51.14
2023-06-15T06:31:32.121Z,49.36
2023-06-15T06:33:59.089Z,53.75
2023-06-15T06:36:29.691Z,52.32
2023-06-15T06:39:02.564Z,51.85
2023-06-15T06:41:30.036Z,48.85
2023-06-15T06:43:57.356Z,48.07
2023-06-15T06:46:24.478Z,51.33
2023-06-15T06:48:51.622Z,46.85
2023-06-15T06:51:20.876Z,45.46
2023-06-15T06:53:48.340Z,45.52
2023-06-15T06:56:16.373Z,45.33
2023-06-15T06:58:43.858Z,45.43
2023-06-15T07:01:10.928Z,44.12
2023-06-15T07:03:40.785Z,45.62
2023-06-15T07:06:08.159Z,42.79
2023-06-15T07:08:35.677Z,43.46
2023-06-15T07:11:02.975Z,43.36
2023-06-15T07:13:30.150Z,42.62
2023-06-15T07:15:59.460Z,46.65
2023-06-15T07:18:26.971Z,46.95
2023-06-15T07:20:57.053Z,42.68
2023-06-15T07:23:24.648Z,43.63
2023-06-15T07:25:56.449Z,40.40
2023-06-15T07:28:24.685Z,41.00
2023-06-15T07:30:52.050Z,38.31
2023-06-15T07:33:19.517Z,38.13
2023-06-15T07:35:49.438Z,39.54
2023-06-15T07:38:17.277Z,37.79
2023-06-15T07:40:44.216Z,36.79
2023-06-15T07:43:12.168Z,39.32
2023-06-15T07:45:39.276Z,37.03
2023-06-15T07:48:07.518Z,35.87
2023-06-15T07:50:35.026Z,36.00
2023-06-15T07:53:02.409Z,37.83
2023-06-15T07:55:29.417Z,38.15
2023-06-15T07:57:56.731Z,33.39
2023-06-15T08:00:23.962Z,32.72
2023-06-15T08:02:51.066Z,34.18
2023-06-15T08:05:18.153Z,32.53
2023-06-15T08:07:45.172Z,35.45
2023-06-15T08:10:12.501Z,36.93
2023-06-15T08:12:39.532Z,31.94
2023-06-15T08:15:07.553Z,33.18
2023-06-15T08:17:34.560Z,34.24
2023-06-15T08:20:02.234Z,30.80
2023-06-15T08:22:29.263Z,31.37
2023-06-15T08:24:56.246Z,32.24
2023-06-15T08:27:23.154Z,33.11
2023-06-15T08:29:51.130Z,31.01
2023-06-15T08:32:18.220Z,34.26
2023-06-15T08:34:46.323Z,31.17
2023-06-15T08:37:13.853Z,32.35
2023-06-15T08:39:40.925Z,29.26
2023-06-15T08:42:08.866Z,30.45
2023-06-15T08:44:36.385Z,30.30
2023-06-15T08:47:06.803Z,30.64
2023-06-15T08:49:33.952Z,28.70
2023-06-15T08:52:01.226Z,29.15
2023-06-15T08:54:29.974Z,30.96
2023-06-15T08:56:57.317Z,32.08
2023-06-15T08:59:24.617Z,30.97
2023-06-15T09:01:54.478Z,32.98
2023-06-15T09:04:21.985Z,34.41
2023-06-15T09:06:50.987Z,32.31
2023-06-15T09:09:18.128Z,32.10
2023-06-15T09:11:47.895Z,32.90
2023-06-15T09:14:14.943Z,35.76
2023-06-15T09:16:43.096Z,33.21
2023-06-15T09:19:17.831Z,32.08
2023-06-15T09:21:53.010Z,32.59
2023-06-15T09:24:24.508Z,32.42
2023-06-15T09:26:51.739Z,33.94
2023-06-15T09:29:18.775Z,35.79
2023-06-15T09:31:45.823Z,35.46
2023-06-15T09:34:14.544Z,34.65
2023-06-15T09:36:48.198Z,32.62
2023-06-15T09:39:16.400Z,33.42
2023-06-15T09:41:53.391Z,33.40
2023-06-15T09:44:26.646Z,29.71
2023-06-15T09:46:58.260Z,32.35
2023-06-15T09:49:27.870Z,29.95
2023-06-15T09:51:57.806Z,29.40
2023-06-15T09:54:27.439Z,31.99
2023-06-15T09:56:55.295Z,30.65
2023-06-15T09:59:22.805Z,32.37
2023-06-15T10:01:51.473Z,30.22
2023-06-15T10:04:22.057Z,29.05
2023-06-15T10:06:56.667Z,29.09
2023-06-15T10:09:30.140Z,29.80
2023-06-15T10:12:04.753Z,31.36
2023-06-15T10:14:57.231Z,29.78
2023-06-15T10:17:32.258Z,29.85
2023-06-15T10:20:09.226Z,28.69
2023-06-15T10:23:00.913Z,32.99
2023-06-15T10:25:29.811Z,29.60
2023-06-15T10:27:56.823Z,31.43
2023-06-15T10:30:36.466Z,30.04
2023-06-15T10:33:31.174Z,27.85
2023-06-15T10:36:01.253Z,27.75
2023-06-15T10:38:40.164Z,29.17
2023-06-15T10:41:07.721Z,26.36
2023-06-15T10:43:34.674Z,24.63
2023-06-15T10:46:03.759Z,25.82
2023-06-15T10:48:31.331Z,28.24
2023-06-15T10:51:09.730Z,24.34
2023-06-15T10:53:47.197Z,26.92
2023-06-15T10:56:16.249Z,29.17
2023-06-15T10:58:55.290Z,24.94
2023-06-15T11:01:27.420Z,25.53
2023-06-15T11:03:56.256Z,23.63
2023-06-15T11:06:32.580Z,25.85
2023-06-15T11:09:05.431Z,26.14
2023-06-15T11:11:38.080Z,25.83
2023-06-15T11:14:22.336Z,26.72
2023-06-15T11:17:06.729Z,28.28
2023-06-15T11:19:42.137Z,24.35
2023-06-15T11:22:16.160Z,24.61
2023-06-15T11:24:43.436Z,26.00
2023-06-15T11:27:11.414Z,26.94
2023-06-15T11:29:42.328Z,29.38
2023-06-15T11:32:13.596Z,25.82
2023-06-15T11:34:44.452Z,25.11
2023-06-15T11:37:14.926Z,26.21
2023-06-15T11:39:46.176Z,25.95
2023-06-15T11:42:13.360Z,27.43
2023-06-15T11:44:43.269Z,24.65
2023-06-15T11:47:13.605Z,25.13
2023-06-15T11:49:40.779Z,25.26
2023-06-15T11:52:08.182Z,27.55
2023-06-15T11:57:05.669Z,25.47
2023-06-15T11:59:36.774Z,28.40
2023-06-15T12:02:05.511Z,25.06
2023-06-15T12:04:32.927Z,26.70
2023-06-15T12:07:06.344Z,28.10
2023-06-15T12:09:33.866Z,26.32
2023-06-15T12:12:02.046Z,27.08
2023-06-15T12:14:29.171Z,26.49
2023-06-15T12:16:57.807Z,24.66
2023-06-15T12:19:24.801Z,24.44
2023-06-15T12:21:51.742Z,24.11
2023-06-15T12:24:20.604Z,24.55
2023-06-15T12:26:53.542Z,26.69
2023-06-15T12:29:22.457Z,25.20
2023-06-15T12:31:56.218Z,25.68
2023-06-15T12:34:26.679Z,26.14
2023-06-15T12:36:56.539Z,27.58
2023-06-15T12:39:31.662Z,24.41
2023-06-15T12:42:03.050Z,24.05
2023-06-15T12:44:32.580Z,26.48
2023-06-15T12:46:59.509Z,23.30
2023-06-15T12:49:26.646Z,23.37
2023-06-15T12:51:56.114Z,23.45
2023-06-15T12:54:23.793Z,26.50
2023-06-15T12:56:50.869Z,24.86
2023-06-15T12:59:17.912Z,24.25
2023-06-15T13:01:44.979Z,23.95
2023-06-15T13:04:12.431Z,27.51
2023-06-15T13:06:39.977Z,23.55
2023-06-15T13:09:07.224Z,23.44
2023-06-15T13:11:34.238Z,21.95
2023-06-15T13:14:01.201Z,23.22
2023-06-15T13:16:28.319Z,25.44
2023-06-15T13:18:55.370Z,24.88
2023-06-15T13:21:23.426Z,26.55
2023-06-15T13:23:50.601Z,26.34
2023-06-15T13:26:17.778Z,26.12
2023-06-15T13:28:44.831Z,25.37
2023-06-15T13:31:14.113Z,27.09
2023-06-15T13:33:42.186Z,26.26
2023-06-15T13:36:09.177Z,26.79
2023-06-15T13:38:36.306Z,28.17
2023-06-15T13:41:03.264Z,27.81
2023-06-15T13:43:31.619Z,27.86
2023-06-15T13:45:58.664Z,28.72
2023-06-15T13:48:25.713Z,26.58
2023-06-15T13:50:52.724Z,28.07
2023-06-15T13:53:19.723Z,27.66
2023-06-15T13:55:46.995Z,28.05
2023-06-15T13:58:13.996Z,27.93
2023-06-15T14:00:41.032Z,27.60
2023-06-15T14:03:08.624Z,26.92
2023-06-15T14:05:35.755Z,28.92
2023-06-15T14:08:02.944Z,29.53
2023-06-15T14:10:29.883Z,27.57
2023-06-15T14:12:57.666Z,27.95
2023-06-15T14:15:24.769Z,29.43
2023-06-15T14:17:51.742Z,27.44
2023-06-15T14:20:19.278Z,26.93
2023-06-15T14:22:46.445Z,28.94
2023-06-15T14:25:15.570Z,30.57
2023-06-15T14:27:47.103Z,32.30
2023-06-15T14:30:17.180Z,31.09
2023-06-15T14:32:44.573Z,29.81
2023-06-15T14:35:11.630Z,30.85
2023-06-15T14:37:38.681Z,30.14
2023-06-15T14:40:06.434Z,30.16
2023-06-15T14:42:33.989Z,29.57
2023-06-15T14:45:01.054Z,31.22
2023-06-15T14:47:28.210Z,28.58
2023-06-15T14:49:55.480Z,28.82
2023-06-15T14:52:22.919Z,28.88
2023-06-15T14:54:49.873Z,30.65
2023-06-15T14:57:16.984Z,28.93
2023-06-15T14:59:43.899Z,30.22
2023-06-15T15:02:10.994Z,27.54
2023-06-15T15:04:37.987Z,28.24
2023-06-15T15:07:05.076Z,29.96
2023-06-15T15:09:32.053Z,29.80
2023-06-15T15:11:59.048Z,28.66
2023-06-15T15:14:26.311Z,31.10
2023-06-15T15:16:53.597Z,31.73
2023-06-15T15:19:22.647Z,33.49
2023-06-15T15:21:49.792Z,31.94
2023-06-15T15:24:17.106Z,31.05
2023-06-15T15:26:44.272Z,31.83
2023-06-15T15:29:11.627Z,32.71
2023-06-15T15:31:38.630Z,33.58
2023-06-15T15:34:05.538Z,31.64
2023-06-15T15:36:32.541Z,30.80
2023-06-15T15:38:59.867Z,31.72
2023-06-15T15:41:26.788Z,31.43
2023-06-15T15:43:54.455Z,31.72
2023-06-15T15:46:24.363Z,30.96
2023-06-15T15:48:51.349Z,30.78
2023-06-15T15:51:19.665Z,31.14
2023-06-15T15:53:46.700Z,30.35
2023-06-15T15:56:13.653Z,31.05
2023-06-15T15:58:40.618Z,31.26
2023-06-15T16:01:07.549Z,34.12
2023-06-15T16:03:34.553Z,31.76
2023-06-15T16:06:01.664Z,31.35
2023-06-15T16:08:28.660Z,30.72
2023-06-15T16:10:55.599Z,29.37
2023-06-15T16:13:22.596Z,30.64
2023-06-15T16:16:01.362Z,30.87
2023-06-15T16:18:34.806Z,31.50
2023-06-15T16:21:01.779Z,30.29
2023-06-15T16:23:28.777Z,31.01
2023-06-15T16:25:56.276Z,32.77
2023-06-15T16:28:23.261Z,30.93
2023-06-15T16:30:50.390Z,32.56
2023-06-15T16:33:17.342Z,32.37
2023-06-15T16:35:44.306Z,32.25
2023-06-15T16:38:11.253Z,32.67
2023-06-15T16:40:39.555Z,31.88
2023-06-15T16:43:09.682Z,32.56
2023-06-15T16:45:36.858Z,32.73
2023-06-15T16:48:03.953Z,32.70
2023-06-15T16:50:30.940Z,33.15
2023-06-15T16:52:57.862Z,32.67
2023-06-15T16:55:24.847Z,33.19
2023-06-15T16:57:51.952Z,32.65
2023-06-15T17:00:19.824Z,33.89
2023-06-15T17:02:47.052Z,32.75
2023-06-15T17:05:14.586Z,32.61
2023-06-15T17:07:41.808Z,31.88
2023-06-15T17:10:09.554Z,32.37
2023-06-15T17:12:36.426Z,32.02
2023-06-15T17:15:03.563Z,31.04
2023-06-15T17:17:30.673Z,32.01
2023-06-15T17:19:57.604Z,32.89
2023-06-15T17:22:24.607Z,31.17
2023-06-15T17:24:51.536Z,32.46
2023-06-15T17:27:18.509Z,31.96
2023-06-15T17:29:45.756Z,33.30
2023-06-15T17:32:12.697Z,33.54
2023-06-15T17:34:39.643Z,34.05
2023-06-15T17:37:06.647Z,33.42
2023-06-15T17:39:33.600Z,33.73
2023-06-15T17:42:00.660Z,33.22
2023-06-15T17:44:28.206Z,33.81
2023-06-15T17:46:55.666Z,32.97
2023-06-15T17:49:22.589Z,34.01
2023-06-15T17:51:49.546Z,34.10
2023-06-15T17:54:16.607Z,34.71
2023-06-15T17:56:43.608Z,33.95
2023-06-15T17:59:11.160Z,34.21
2023-06-15T18:01:38.160Z,34.51
2023-06-15T18:04:05.581Z,34.32
2023-06-15T18:06:32.707Z,33.84
2023-06-15T18:08:59.670Z,34.29
2023-06-15T18:11:27.295Z,34.78
2023-06-15T18:13:55.064Z,34.42
2023-06-15T18:16:22.158Z,35.22
2023-06-15T18:18:49.204Z,35.14
2023-06-15T18:21:16.228Z,35.09
2023-06-15T18:23:43.338Z,35.60
2023-06-15T18:26:12.722Z,37.04
2023-06-15T18:28:39.583Z,36.29
2023-06-15T18:31:06.503Z,36.47
2023-06-15T18:33:33.434Z,36.81
2023-06-15T18:36:00.909Z,36.78
2023-06-15T18:38:29.955Z,37.43
2023-06-15T18:40:57.207Z,37.64
2023-06-15T18:43:24.169Z,37.76
2023-06-15T18:45:51.311Z,39.28
2023-06-15T18:48:18.460Z,39.09
2023-06-15T18:50:45.552Z,39.41
2023-06-15T18:53:12.444Z,39.86
2023-06-15T18:55:39.496Z,40.31
2023-06-15T18:58:07.283Z,40.44
2023-06-15T19:00:34.255Z,41.04
2023-06-15T19:03:01.390Z,41.40
2023-06-15T19:05:28.450Z,41.80
2023-06-15T19:07:55.373Z,42.37
2023-06-15T19:10:22.606Z,42.46
2023-06-15T19:12:49.892Z,42.27
2023-06-15T19:15:17.071Z,42.14
2023-06-15T19:17:44.308Z,43.12
2023-06-15T19:20:12.278Z,43.31
2023-06-15T19:22:39.789Z,43.85
2023-06-15T19:25:07.279Z,44.32
2023-06-15T19:27:34.248Z,44.65
2023-06-15T19:30:01.278Z,45.15
2023-06-15T19:32:30.283Z,46.04
2023-06-15T19:34:57.436Z,46.31
2023-06-15T19:37:24.710Z,46.21
2023-06-15T19:39:51.636Z,46.16
2023-06-15T19:42:18.730Z,46.18
2023-06-15T19:44:46.217Z,47.28
2023-06-15T19:47:13.179Z,46.68
2023-06-15T19:49:40.349Z,46.64
2023-06-15T19:52:08.156Z,45.88
2023-06-15T19:54:35.129Z,45.77
2023-06-15T19:57:02.180Z,46.43
2023-06-15T19:59:29.160Z,46.53
2023-06-15T20:01:56.299Z,46.72
2023-06-15T20:04:23.586Z,46.36
2023-06-15T20:06:50.830Z,46.82
2023-06-15T20:09:17.909Z,46.95
2023-06-15T20:11:46.432Z,49.12
2023-06-15T20:14:14.785Z,51.20
2023-06-15T20:16:41.868Z,52.22
2023-06-15T20:19:09.489Z,52.50
2023-06-15T20:21:36.411Z,52.84
2023-06-15T20:24:03.898Z,53.54
2023-06-15T20:26:32.500Z,53.25
2023-06-15T20:28:59.715Z,53.36
2023-06-15T20:31:26.858Z,53.30
2023-06-15T20:33:55.338Z,53.85
2023-06-15T20:36:22.563Z,52.52
2023-06-15T20:38:49.735Z,53.03
2023-06-15T20:41:16.682Z,51.79
2023-06-15T20:43:43.958Z,53.51
2023-06-15T20:46:13.722Z,53.97
2023-06-15T20:48:40.993Z,54.67
2023-06-15T20:51:08.149Z,55.14
2023-06-15T20:53:36.832Z,54.70
2023-06-15T20:56:07.733Z,55.12
2023-06-15T20:58:36.714Z,54.51
2023-06-15T21:01:05.161Z,54.60
2023-06-15T21:03:32.587Z,55.33
2023-06-15T21:06:01.657Z,55.08
2023-06-15T21:08:33.264Z,54.19
2023-06-15T21:11:01.787Z,54.26
2023-06-15T21:13:29.106Z,55.38
2023-06-15T21:15:56.309Z,56.67
2023-06-15T21:18:23.324Z,54.74
2023-06-15T21:20:50.237Z,54.99
2023-06-15T21:23:17.191Z,55.19
2023-06-15T21:25:44.231Z,54.98
2023-06-15T21:28:11.360Z,55.25
2023-06-15T21:30:38.343Z,55.63
2023-06-15T21:33:06.799Z,56.83
2023-06-15T21:35:33.771Z,56.33
2023-06-15T21:38:00.862Z,56.22
2023-06-15T21:40:27.799Z,56.64
2023-06-15T21:42:54.812Z,56.01
2023-06-15T21:45:21.779Z,56.03
2023-06-15T21:47:50.644Z,55.24
2023-06-15T21:50:19.482Z,57.03
2023-06-15T21:52:47.666Z,57.36
2023-06-15T21:55:16.319Z,58.79
2023-06-15T21:57:44.126Z,56.39
2023-06-15T22:00:12.439Z,55.18
2023-06-15T22:02:39.613Z,55.24
2023-06-15T22:05:06.833Z,55.72
2023-06-15T22:07:33.807Z,55.21
2023-06-15T22:10:00.783Z,54.73
2023-06-15T22:12:30.140Z,57.64
2023-06-15T22:14:57.100Z,59.53
2023-06-15T22:17:26.971Z,61.51
2023-06-15T22:19:54.780Z,61.09
2023-06-15T22:22:22.671Z,61.87
2023-06-15T22:24:49.873Z,62.67
2023-06-15T22:27:16.905Z,63.87
2023-06-15T22:29:44.873Z,70.58
2023-06-15T22:32:11.922Z,69.37
2023-06-15T22:34:38.908Z,69.52
2023-06-15T22:37:07.697Z,68.94
2023-06-15T22:39:34.735Z,67.75
2023-06-15T22:42:01.698Z,64.05
2023-06-15T22:44:28.634Z,67.46
2023-06-15T22:46:55.613Z,67.49
2023-06-15T22:49:23.479Z,65.97
2023-06-15T22:51:50.508Z,65.99
2023-06-15T22:54:17.422Z,66.36
2023-06-15T22:56:44.369Z,63.79
2023-06-15T22:59:11.328Z,64.46
2023-06-15T23:01:38.253Z,65.26
2023-06-15T23:04:05.227Z,64.49
2023-06-15T23:06:32.220Z,67.64
2023-06-15T23:08:59.063Z,66.33
2023-06-15T23:11:25.955Z,66.75
2023-06-15T23:13:54.849Z,66.47
2023-06-15T23:16:23.206Z,66.89
2023-06-15T23:18:54.876Z,66.99
2023-06-15T23:21:27.828Z,66.98
2023-06-15T23:23:59.578Z,65.77
2023-06-15T23:26:30.523Z,66.10
2023-06-15T23:28:58.057Z,65.39
2023-06-15T23:31:27.918Z,65.38
2023-06-15T23:33:56.147Z,65.26
2023-06-15T23:36:23.816Z,64.69
2023-06-15T23:38:50.771Z,65.41
2023-06-15T23:41:23.225Z,66.44
2023-06-15T23:43:53.263Z,66.89
2023-06-15T23:46:20.906Z,66.58
2023-06-15T23:48:48.887Z,68.17
2023-06-15T23:51:17.337Z,70.28
2023-06-15T23:53:45.507Z,68.46
2023-06-15T23:56:12.472Z,69.06
2023-06-15T23:58:40.597Z,67.13
